Time;durP1;ratioP1;P1;durP2;ratioP2;P2;SDS_P1;SDS_P2;PMS_P1;PMS_P2;Temp;Humidity;BMP_temperature;BMP_pressure;BME280_temperature;BME280_humidity;BME280_pressure;Samples;Min_cycle;Max_cycle;Signal;HPM_P1;HPM_P2
2023/04/16 00:01:25;;;;;;;1.80;1.70;;;6.10;99.90;;;;;;5024432;28;1295369;-86
2023/04/16 00:03:53;;;;;;;1.55;1.45;;;6.10;99.90;;;;;;5056132;28;20221;-86
2023/04/16 00:06:23;;;;;;;1.75;1.65;;;6.10;99.90;;;;;;5058452;28;20225;-87
2023/04/16 00:08:51;;;;;;;1.30;1.30;;;6.10;99.90;;;;;;5068541;28;20229;-86
2023/04/16 00:11:19;;;;;;;1.30;1.20;;;6.10;99.90;;;;;;5070689;28;20213;-85
2023/04/16 00:13:49;;;;;;;1.00;1.00;;;6.10;99.90;;;;;;5070786;28;20216;-86
2023/04/16 00:16:17;;;;;;;1.33;1.30;;;6.10;99.90;;;;;;5072766;28;20256;-86
2023/04/16 00:18:46;;;;;;;1.08;1.08;;;6.20;99.90;;;;;;5071502;28;20228;-87
2023/04/16 00:21:14;;;;;;;1.90;1.23;;;6.20;99.90;;;;;;5053303;28;20234;-87
2023/04/16 00:23:43;;;;;;;1.52;1.27;;;6.20;99.90;;;;;;5052845;28;20212;-86
2023/04/16 00:26:11;;;;;;;2.75;1.35;;;6.20;99.90;;;;;;5052828;28;20244;-86
2023/04/16 00:28:40;;;;;;;1.38;1.27;;;6.20;99.90;;;;;;5052633;28;20220;-86
2023/04/16 00:31:10;;;;;;;1.10;1.10;;;6.20;99.90;;;;;;5063045;28;20282;-86
2023/04/16 00:33:38;;;;;;;1.00;1.00;;;6.20;99.90;;;;;;5072970;28;20289;-86
2023/04/16 00:36:07;;;;;;;1.33;1.20;;;6.20;99.90;;;;;;5057027;28;20247;-86
2023/04/16 00:38:35;;;;;;;1.15;1.15;;;6.20;99.90;;;;;;5068318;28;20292;-86
2023/04/16 00:41:03;;;;;;;1.05;1.05;;;6.20;99.90;;;;;;5073020;28;20209;-86
2023/04/16 00:43:32;;;;;;;4.25;1.60;;;6.20;99.90;;;;;;5054445;28;20206;-86
2023/04/16 00:46:00;;;;;;;1.65;1.55;;;6.10;99.90;;;;;;5061420;28;20217;-86
2023/04/16 00:48:31;;;;;;;1.27;1.27;;;6.10;99.90;;;;;;5062104;28;20209;-86
2023/04/16 00:51:00;;;;;;;1.30;1.20;;;6.10;99.90;;;;;;5052655;28;20209;-86
2023/04/16 00:53:29;;;;;;;1.27;1.27;;;6.10;99.90;;;;;;5052749;28;20202;-87
2023/04/16 00:55:58;;;;;;;1.33;1.20;;;6.10;99.90;;;;;;5052986;28;20208;-87
2023/04/16 00:58:27;;;;;;;1.55;1.45;;;6.00;99.90;;;;;;5051912;28;20247;-86
2023/04/16 01:00:55;;;;;;;1.45;1.35;;;6.00;99.90;;;;;;5065789;28;20236;-86
2023/04/16 01:03:24;;;;;;;1.48;1.38;;;6.00;99.90;;;;;;5072447;28;20239;-86
2023/04/16 01:05:55;;;;;;;1.60;1.50;;;6.00;99.90;;;;;;5071673;28;20205;-86
2023/04/16 01:08:24;;;;;;;2.08;1.98;;;5.90;99.90;;;;;;5053949;28;20213;-86
2023/04/16 01:10:53;;;;;;;1.50;1.40;;;6.00;99.90;;;;;;5054846;28;20206;-88
2023/04/16 01:13:21;;;;;;;1.10;1.10;;;5.90;99.90;;;;;;5072383;28;20221;-86
2023/04/16 01:15:49;;;;;;;2.17;1.98;;;5.90;99.90;;;;;;5076189;28;20270;-86
2023/04/16 01:18:19;;;;;;;1.67;1.58;;;5.90;99.90;;;;;;5061618;28;20201;-87
2023/04/16 01:20:50;;;;;;;2.00;1.90;;;5.90;99.90;;;;;;5073621;28;20201;-86
2023/04/16 01:23:19;;;;;;;2.10;2.00;;;5.90;99.90;;;;;;5075356;28;20225;-86
2023/04/16 01:25:47;;;;;;;2.45;2.13;;;5.90;99.90;;;;;;5075705;28;20211;-86
2023/04/16 01:28:16;;;;;;;2.35;2.15;;;5.90;99.90;;;;;;5064375;28;20220;-86
2023/04/16 01:30:44;;;;;;;2.47;2.28;;;5.80;99.90;;;;;;5060710;28;20209;-86
2023/04/16 01:33:14;;;;;;;1.95;1.85;;;5.80;99.90;;;;;;5057720;28;20228;-86
2023/04/16 01:35:42;;;;;;;3.10;2.90;;;5.80;99.90;;;;;;5075710;28;20321;-86
2023/04/16 01:38:12;;;;;;;2.70;2.38;;;5.80;99.90;;;;;;5068838;28;20190;-86
2023/04/16 01:40:40;;;;;;;3.15;2.85;;;5.70;99.90;;;;;;5055382;28;20252;-86
2023/04/16 01:43:09;;;;;;;3.03;2.78;;;5.70;99.90;;;;;;5055136;28;20225;-85
2023/04/16 01:45:37;;;;;;;2.92;2.72;;;5.70;99.90;;;;;;5055454;28;20274;-87
2023/04/16 01:48:06;;;;;;;3.10;2.83;;;5.70;99.90;;;;;;5068722;28;20217;-87
2023/04/16 01:50:35;;;;;;;4.57;3.05;;;5.60;99.90;;;;;;5075515;28;20200;-87
2023/04/16 01:53:03;;;;;;;3.25;2.78;;;5.60;99.90;;;;;;5074399;28;20307;-87
2023/04/16 01:55:34;;;;;;;1.70;1.60;;;5.60;99.90;;;;;;5055317;28;20209;-87
2023/04/16 01:58:02;;;;;;;1.75;1.65;;;5.60;99.90;;;;;;5059852;28;20216;-87
2023/04/16 02:00:31;;;;;;;1.90;1.80;;;5.60;99.90;;;;;;5061230;28;20204;-87
2023/04/16 02:02:59;;;;;;;1.90;1.80;;;5.60;99.90;;;;;;5064050;28;20398;-87
2023/04/16 02:05:28;;;;;;;1.80;1.70;;;5.60;99.90;;;;;;5060586;28;20230;-87
2023/04/16 02:07:57;;;;;;;2.38;2.17;;;5.50;99.90;;;;;;5059699;28;20213;-87
2023/04/16 02:10:25;;;;;;;2.33;2.20;;;5.50;99.90;;;;;;5074897;28;20222;-87
2023/04/16 02:12:55;;;;;;;2.80;2.60;;;5.50;99.90;;;;;;5075317;28;20224;-87
2023/04/16 02:15:24;;;;;;;3.63;3.20;;;5.40;99.90;;;;;;5075027;28;20197;-85
2023/04/16 02:17:55;;;;;;;2.42;2.22;;;5.40;99.90;;;;;;5071462;28;20211;-87
2023/04/16 02:20:24;;;;;;;2.42;2.22;;;5.40;99.90;;;;;;5061725;28;20197;-86
2023/04/16 02:22:52;;;;;;;2.85;2.65;;;5.40;99.90;;;;;;5073523;28;20225;-86
2023/04/16 02:25:21;;;;;;;2.53;2.33;;;5.30;99.90;;;;;;5060454;28;20201;-86
2023/04/16 02:27:50;;;;;;;2.33;2.13;;;5.30;99.90;;;;;;5053991;28;20253;-86
2023/04/16 02:30:20;;;;;;;3.17;2.90;;;5.30;99.90;;;;;;5059639;28;20292;-86
2023/04/16 02:32:49;;;;;;;3.88;3.58;;;5.20;99.90;;;;;;5074807;28;20221;-86
2023/04/16 02:35:17;;;;;;;4.65;4.25;;;5.30;99.90;;;;;;5074719;28;20205;-85
2023/04/16 02:37:45;;;;;;;6.97;5.53;;;5.20;99.90;;;;;;5073664;28;20212;-85
2023/04/16 02:40:14;;;;;;;4.30;4.00;;;5.20;99.90;;;;;;5073925;28;20265;-86
2023/04/16 02:42:42;;;;;;;5.22;4.05;;;5.20;99.90;;;;;;5074485;28;20224;-86
2023/04/16 02:45:11;;;;;;;6.35;4.47;;;5.20;99.90;;;;;;5074438;28;20216;-86
2023/04/16 02:47:41;;;;;;;5.82;5.18;;;5.20;99.90;;;;;;5057150;28;20217;-86
2023/04/16 02:50:10;;;;;;;4.05;3.75;;;5.30;99.90;;;;;;5054310;28;20269;-87
2023/04/16 02:52:39;;;;;;;5.38;4.70;;;5.30;99.90;;;;;;5054623;28;20308;-86
2023/04/16 02:55:08;;;;;;;5.28;4.78;;;5.40;99.90;;;;;;5063481;28;20232;-86
2023/04/16 02:57:36;;;;;;;4.72;4.35;;;5.40;99.90;;;;;;5058040;28;20205;-86
2023/04/16 03:00:05;;;;;;;4.63;4.22;;;5.30;99.90;;;;;;5054141;28;20210;-87
2023/04/16 03:02:34;;;;;;;4.13;3.75;;;5.40;99.90;;;;;;5072788;28;20231;-87
2023/04/16 03:05:04;;;;;;;3.90;3.60;;;5.40;99.90;;;;;;5072919;28;20251;-87
2023/04/16 03:07:33;;;;;;;7.10;4.00;;;5.40;99.90;;;;;;5062317;28;20217;-87
2023/04/16 03:10:01;;;;;;;4.70;4.30;;;5.40;99.90;;;;;;5053850;28;20208;-86
2023/04/16 03:12:29;;;;;;;4.68;4.28;;;5.40;99.90;;;;;;5053873;28;20304;-86
2023/04/16 03:14:58;;;;;;;3.60;3.30;;;5.50;99.90;;;;;;5053805;28;20214;-86
2023/04/16 03:17:26;;;;;;;4.10;3.70;;;5.50;99.90;;;;;;5066683;28;20204;-86
2023/04/16 03:19:55;;;;;;;3.70;3.40;;;5.40;99.90;;;;;;5073204;28;20205;-86
2023/04/16 03:22:25;;;;;;;4.20;3.80;;;5.40;99.90;;;;;;5073938;28;20304;-87
2023/04/16 03:24:53;;;;;;;3.90;3.60;;;5.40;99.90;;;;;;5054008;28;20198;-86
2023/04/16 03:27:21;;;;;;;4.57;4.18;;;5.40;99.90;;;;;;5065364;28;20216;-86
2023/04/16 03:29:50;;;;;;;5.20;4.70;;;5.40;99.90;;;;;;5073503;28;20200;-86
2023/04/16 03:32:18;;;;;;;4.95;4.50;;;5.40;99.90;;;;;;5072933;28;20217;-86
2023/04/16 03:34:50;;;;;;;5.40;4.75;;;5.40;99.90;;;;;;5063344;28;20201;-86
2023/04/16 03:37:18;;;;;;;4.65;4.35;;;5.30;99.90;;;;;;5064319;28;20197;-86
2023/04/16 03:39:48;;;;;;;6.22;5.63;;;5.40;99.90;;;;;;5073045;28;20201;-86
2023/04/16 03:42:16;;;;;;;5.38;4.88;;;5.40;99.90;;;;;;5057455;28;20215;-87
2023/04/16 03:44:44;;;;;;;6.55;5.95;;;5.40;99.90;;;;;;5073226;28;20211;-86
2023/04/16 03:47:13;;;;;;;6.35;5.63;;;5.50;99.90;;;;;;5063225;28;20205;-86
2023/04/16 03:49:41;;;;;;;6.60;6.00;;;5.50;99.90;;;;;;5073595;28;20201;-86
2023/04/16 03:52:10;;;;;;;7.47;6.85;;;5.60;99.90;;;;;;5073105;28;20221;-86
2023/04/16 03:54:38;;;;;;;6.53;6.03;;;5.70;99.90;;;;;;5073327;28;20201;-86
2023/04/16 03:57:08;;;;;;;8.30;7.47;;;5.80;99.90;;;;;;5065399;28;20269;-86
2023/04/16 03:59:36;;;;;;;7.15;6.55;;;5.80;99.90;;;;;;5057635;28;20224;-86
2023/04/16 04:02:04;;;;;;;8.52;7.60;;;5.90;99.90;;;;;;5052960;28;20245;-86
2023/04/16 04:04:33;;;;;;;6.95;6.35;;;6.00;99.90;;;;;;5052177;28;20216;-87
2023/04/16 04:07:02;;;;;;;8.95;8.13;;;6.10;99.90;;;;;;5052399;28;20197;-87
2023/04/16 04:09:30;;;;;;;7.47;6.88;;;6.00;99.90;;;;;;5055026;28;20232;-80
2023/04/16 04:11:58;;;;;;;8.77;7.97;;;6.10;99.90;;;;;;5073016;28;20225;-80
2023/04/16 04:14:28;;;;;;;8.38;7.65;;;6.10;99.90;;;;;;5064973;28;20229;-80
2023/04/16 04:16:57;;;;;;;7.65;6.95;;;6.20;99.90;;;;;;5052763;28;20305;-80
2023/04/16 04:19:25;;;;;;;7.47;6.88;;;6.20;99.90;;;;;;5052900;28;20204;-80
2023/04/16 04:21:53;;;;;;;6.28;5.78;;;6.20;99.90;;;;;;5052844;28;20232;-80
2023/04/16 04:24:22;;;;;;;9.25;7.95;;;6.20;99.90;;;;;;5066667;28;20197;-80
2023/04/16 04:26:50;;;;;;;7.47;6.82;;;6.20;99.90;;;;;;5054782;28;20259;-80
2023/04/16 04:29:18;;;;;;;7.25;6.55;;;6.20;99.90;;;;;;5066109;28;20305;-80
2023/04/16 04:31:48;;;;;;;6.05;5.65;;;6.30;99.90;;;;;;5070984;28;20217;-80
2023/04/16 04:34:16;;;;;;;7.88;7.10;;;6.30;99.90;;;;;;5073057;28;20217;-80
2023/04/16 04:36:45;;;;;;;7.18;6.57;;;6.30;99.90;;;;;;5072013;28;20262;-79
2023/04/16 04:39:13;;;;;;;7.95;7.13;;;6.30;99.90;;;;;;5058425;28;20208;-80
2023/04/16 04:41:41;;;;;;;6.95;6.35;;;6.30;99.90;;;;;;5071979;28;20228;-79
2023/04/16 04:44:09;;;;;;;7.18;6.57;;;6.30;99.90;;;;;;5065491;28;20197;-79
2023/04/16 04:46:38;;;;;;;7.40;6.80;;;6.40;99.90;;;;;;5063880;28;20216;-79
2023/04/16 04:49:08;;;;;;;7.07;6.47;;;6.40;99.90;;;;;;5056289;28;20228;-79
2023/04/16 04:51:36;;;;;;;6.25;5.75;;;6.40;99.90;;;;;;5056242;28;20222;-79
2023/04/16 04:54:05;;;;;;;6.43;5.78;;;6.40;99.90;;;;;;5056514;28;20197;-79
2023/04/16 04:56:33;;;;;;;6.82;6.18;;;6.50;99.90;;;;;;5064664;28;20289;-79
2023/04/16 04:59:01;;;;;;;5.13;4.72;;;6.50;99.90;;;;;;5075725;28;20201;-79
2023/04/16 05:01:30;;;;;;;6.57;6.05;;;6.50;99.90;;;;;;5066367;28;20229;-79
2023/04/16 05:03:58;;;;;;;6.25;5.72;;;6.50;99.90;;;;;;5056299;28;20190;-79
2023/04/16 05:06:28;;;;;;;7.05;6.35;;;6.50;99.90;;;;;;5056035;28;20202;-79
2023/04/16 05:08:56;;;;;;;7.63;6.82;;;6.50;99.90;;;;;;5070196;28;20217;-79
2023/04/16 05:11:24;;;;;;;6.72;6.13;;;6.60;99.90;;;;;;5074721;28;20327;-79
2023/04/16 05:13:53;;;;;;;8.10;7.30;;;6.60;99.90;;;;;;5069162;28;20205;-79
2023/04/16 05:16:21;;;;;;;6.10;5.60;;;6.60;99.90;;;;;;5058202;28;20208;-79
2023/04/16 05:18:49;;;;;;;6.97;6.28;;;6.60;99.90;;;;;;5070166;28;20217;-79
2023/04/16 05:21:17;;;;;;;6.70;6.10;;;6.60;99.90;;;;;;5055833;28;20209;-79
2023/04/16 05:23:47;;;;;;;7.50;6.90;;;6.60;99.90;;;;;;5056174;28;20205;-79
2023/04/16 05:26:15;;;;;;;7.22;6.50;;;6.60;99.90;;;;;;5064290;28;20292;-79
2023/04/16 05:28:44;;;;;;;8.07;7.15;;;6.60;99.90;;;;;;5066539;28;20229;-79
2023/04/16 05:31:12;;;;;;;7.03;6.32;;;6.70;99.90;;;;;;5055089;28;20205;-79
2023/04/16 05:33:40;;;;;;;7.18;6.57;;;6.70;99.90;;;;;;5058558;28;20233;-79
2023/04/16 05:36:08;;;;;;;7.35;6.75;;;6.70;99.90;;;;;;5075203;28;20201;-79
2023/04/16 05:38:37;;;;;;;8.40;7.53;;;6.70;99.90;;;;;;5074685;28;20205;-79
2023/04/16 05:41:06;;;;;;;9.80;7.30;;;6.80;99.90;;;;;;5067445;28;20198;-79
2023/04/16 05:43:35;;;;;;;7.50;6.90;;;6.80;99.90;;;;;;5065867;28;20207;-79
2023/04/16 05:46:03;;;;;;;7.80;7.07;;;6.80;99.90;;;;;;5071217;28;20204;-79
2023/04/16 05:48:31;;;;;;;8.77;7.88;;;6.80;99.90;;;;;;5070482;28;20209;-79
2023/04/16 05:51:01;;;;;;;8.55;7.75;;;6.90;99.90;;;;;;5073775;28;20220;-80
2023/04/16 05:53:29;;;;;;;11.05;8.82;;;6.90;99.90;;;;;;5054848;28;20292;-79
2023/04/16 05:55:57;;;;;;;7.13;6.53;;;7.00;99.90;;;;;;5055017;28;20221;-79
2023/04/16 05:58:27;;;;;;;7.95;7.25;;;7.00;99.90;;;;;;5054624;28;20213;-79
2023/04/16 06:00:55;;;;;;;7.88;7.18;;;7.10;99.90;;;;;;5062884;28;20193;-79
2023/04/16 06:03:24;;;;;;;8.20;7.40;;;7.20;99.90;;;;;;5073298;28;20225;-79
2023/04/16 06:05:52;;;;;;;8.25;7.43;;;7.20;99.90;;;;;;5061951;28;20193;-79
2023/04/16 06:08:21;;;;;;;7.20;6.65;;;7.30;99.90;;;;;;5057992;28;20193;-79
2023/04/16 06:10:49;;;;;;;8.48;7.68;;;7.40;99.90;;;;;;5074646;28;20216;-79
2023/04/16 06:13:18;;;;;;;7.43;6.68;;;7.40;99.90;;;;;;5073018;28;20229;-80
2023/04/16 06:15:47;;;;;;;9.02;8.18;;;7.50;99.90;;;;;;5054667;28;20212;-79
2023/04/16 06:18:16;;;;;;;6.82;6.32;;;7.60;99.90;;;;;;5054436;28;20202;-79
2023/04/16 06:20:44;;;;;;;9.05;8.18;;;7.60;99.90;;;;;;5055086;28;20206;-80
2023/04/16 06:23:12;;;;;;;8.25;7.53;;;7.70;99.90;;;;;;5054276;28;20312;-79
2023/04/16 06:25:40;;;;;;;8.40;7.60;;;7.80;99.90;;;;;;5065976;28;20221;-80
2023/04/16 06:28:09;;;;;;;9.48;8.00;;;7.90;99.90;;;;;;5074147;28;20212;-81
2023/04/16 06:30:37;;;;;;;8.65;7.88;;;8.00;99.90;;;;;;5074529;28;20239;-80
2023/04/16 06:33:07;;;;;;;6.93;6.35;;;8.10;99.90;;;;;;5072932;28;20213;-79
2023/04/16 06:35:35;;;;;;;7.45;6.82;;;8.10;99.90;;;;;;5063565;28;20198;-79
2023/04/16 06:38:03;;;;;;;9.00;7.10;;;8.20;99.90;;;;;;5053576;28;20266;-80
2023/04/16 06:40:32;;;;;;;8.38;7.50;;;8.30;99.90;;;;;;5054420;28;20277;-80
2023/04/16 06:43:00;;;;;;;6.97;6.28;;;8.40;99.90;;;;;;5054103;28;20225;-80
2023/04/16 06:45:28;;;;;;;7.10;5.75;;;8.50;99.90;;;;;;5054334;28;20216;-80
2023/04/16 06:47:57;;;;;;;7.45;6.78;;;8.60;99.90;;;;;;5069391;28;20213;-80
2023/04/16 06:50:28;;;;;;;5.70;5.30;;;8.70;99.90;;;;;;5073807;28;20244;-79
2023/04/16 06:52:56;;;;;;;6.85;6.13;;;8.70;99.90;;;;;;5073838;28;20224;-80
2023/04/16 06:55:25;;;;;;;6.88;6.28;;;8.80;99.90;;;;;;5073553;28;20215;-80
2023/04/16 06:57:53;;;;;;;7.22;6.53;;;8.80;99.90;;;;;;5058771;28;20209;-80
2023/04/16 07:00:21;;;;;;;6.78;6.07;;;8.90;99.90;;;;;;5071451;28;20197;-80
2023/04/16 07:02:49;;;;;;;6.65;5.28;;;8.90;99.90;;;;;;5062406;28;20232;-80
2023/04/16 07:05:18;;;;;;;5.55;5.05;;;9.00;99.90;;;;;;5072078;28;20201;-80
2023/04/16 07:07:48;;;;;;;4.88;4.40;;;9.00;99.90;;;;;;5059417;28;20201;-80
2023/04/16 07:10:25;;;;;;;5.03;4.22;;;9.00;99.90;;;;;;5053366;28;20226;-80
2023/04/16 07:12:54;;;;;;;3.30;3.05;;;9.00;99.90;;;;;;5064731;28;20230;-84
2023/04/16 07:15:24;;;;;;;4.00;3.70;;;9.00;99.90;;;;;;5072731;28;20204;-84
2023/04/16 07:17:52;;;;;;;3.50;3.30;;;9.00;99.90;;;;;;5072681;28;20208;-83
2023/04/16 07:20:50;;;;;;;4.40;4.00;;;9.00;99.90;;;;;;5072568;28;20197;-83
2023/04/16 07:23:20;;;;;;;3.72;3.42;;;9.00;99.90;;;;;;5064267;28;20216;-84
2023/04/16 07:25:48;;;;;;;3.58;3.30;;;9.10;99.90;;;;;;5073515;28;20209;-80
2023/04/16 07:28:16;;;;;;;4.25;3.90;;;9.20;99.90;;;;;;5073198;28;20208;-80
2023/04/16 07:30:44;;;;;;;3.90;3.50;;;9.30;99.90;;;;;;5072854;28;20220;-80
2023/04/16 07:33:13;;;;;;;3.67;3.38;;;9.40;99.90;;;;;;5073070;28;20224;-80
2023/04/16 07:35:41;;;;;;;3.65;3.35;;;9.60;99.90;;;;;;5073083;28;20200;-80
2023/04/16 07:38:09;;;;;;;3.53;3.25;;;9.70;99.90;;;;;;5072538;28;20205;-79
2023/04/16 07:40:39;;;;;;;3.40;3.10;;;9.80;99.90;;;;;;5073327;28;20208;-80
2023/04/16 07:43:07;;;;;;;3.30;3.10;;;9.90;99.90;;;;;;5073183;28;20240;-80
2023/04/16 07:45:36;;;;;;;3.38;3.10;;;9.90;99.90;;;;;;5073643;28;20220;-80
2023/04/16 07:48:04;;;;;;;3.25;3.05;;;10.00;99.90;;;;;;5058579;28;20197;-82
2023/04/16 07:50:32;;;;;;;4.78;3.83;;;10.10;99.90;;;;;;5052967;28;20228;-83
2023/04/16 07:53:01;;;;;;;4.65;4.13;;;10.20;99.90;;;;;;5053371;28;20229;-82
2023/04/16 07:55:29;;;;;;;3.10;2.90;;;10.30;99.90;;;;;;5069381;28;20201;-82
2023/04/16 07:57:59;;;;;;;3.17;2.95;;;10.20;99.90;;;;;;5071945;28;20213;-81
2023/04/16 08:00:27;;;;;;;2.80;2.60;;;10.20;99.90;;;;;;5072788;28;20212;-81
2023/04/16 08:02:55;;;;;;;2.78;2.58;;;10.10;99.90;;;;;;5072710;28;20237;-81
2023/04/16 08:05:24;;;;;;;3.08;2.88;;;10.20;99.90;;;;;;5073785;28;20213;-80
2023/04/16 08:07:52;;;;;;;11.35;9.43;;;10.10;99.90;;;;;;5058446;28;20205;-79
2023/04/16 08:10:20;;;;;;;7.30;6.22;;;10.20;99.90;;;;;;5053160;28;20225;-85
2023/04/16 08:12:49;;;;;;;3.22;2.95;;;10.20;99.90;;;;;;5069067;28;20225;-88
2023/04/16 08:15:18;;;;;;;3.08;2.88;;;10.20;99.90;;;;;;5073129;28;20205;-83
2023/04/16 08:17:47;;;;;;;3.55;3.25;;;10.40;99.90;;;;;;5072813;28;20205;-85
2023/04/16 08:20:15;;;;;;;4.03;3.63;;;10.40;99.90;;;;;;5074234;28;20211;-85
2023/04/16 08:22:46;;;;;;;2.97;2.78;;;10.50;99.90;;;;;;5077267;28;20232;-85
2023/04/16 08:25:14;;;;;;;4.03;3.00;;;10.50;99.90;;;;;;5077153;28;20205;-86
2023/04/16 08:27:43;;;;;;;2.38;2.17;;;10.60;99.90;;;;;;5076447;28;20215;-84
2023/04/16 08:30:11;;;;;;;8.10;2.75;;;10.60;99.90;;;;;;5076672;28;20225;-82
2023/04/16 08:32:41;;;;;;;2.38;2.25;;;10.60;99.90;;;;;;5076318;28;20239;-81
2023/04/16 08:35:10;;;;;;;2.90;2.70;;;10.70;99.90;;;;;;5077023;28;20209;-84
2023/04/16 08:37:38;;;;;;;2.40;2.30;;;10.70;99.90;;;;;;5076200;28;20230;-84
2023/04/16 08:40:38;;;;;;;7.10;2.90;;;10.70;99.90;;;;;;5076708;28;20208;-84
2023/04/16 08:43:18;;;;;;;3.33;3.10;;;10.60;99.90;;;;;;5076443;28;20231;-84
2023/04/16 08:45:49;;;;;;;3.65;3.35;;;10.50;99.90;;;;;;5076506;28;20204;-84
2023/04/16 08:48:20;;;;;;;3.00;2.80;;;10.40;99.90;;;;;;5076325;28;20193;-85
2023/04/16 08:50:52;;;;;;;2.83;2.63;;;10.30;99.90;;;;;;5076263;28;20258;-87
2023/04/16 08:53:32;;;;;;;2.85;2.55;;;10.40;99.90;;;;;;5076527;28;20225;-86
2023/04/16 08:56:05;;;;;;;3.05;2.78;;;10.30;99.90;;;;;;5076545;28;20201;-87
2023/04/16 08:58:34;;;;;;;2.85;2.65;;;10.40;99.90;;;;;;5073497;28;20219;-87
2023/04/16 09:01:03;;;;;;;2.17;2.08;;;10.40;99.90;;;;;;5056256;28;20205;-88
2023/04/16 09:03:33;;;;;;;2.45;2.25;;;10.50;99.90;;;;;;5056225;28;20218;-89
2023/04/16 09:06:05;;;;;;;3.10;2.80;;;10.70;99.90;;;;;;5061677;28;20201;-88
2023/04/16 09:08:34;;;;;;;1.80;1.70;;;10.90;99.90;;;;;;5075361;28;20192;-84
2023/04/16 09:11:04;;;;;;;2.20;1.85;;;11.10;99.90;;;;;;5075424;28;20221;-84
2023/04/16 09:13:32;;;;;;;2.88;2.67;;;11.20;99.90;;;;;;5064636;28;20202;-86
2023/04/16 09:16:01;;;;;;;2.67;2.42;;;11.40;99.90;;;;;;5064367;28;20203;-83
2023/04/16 09:18:30;;;;;;;2.95;2.10;;;11.60;99.90;;;;;;5073983;28;20265;-92
2023/04/16 09:21:01;;;;;;;3.47;3.17;;;11.80;99.90;;;;;;5076086;28;20205;-83
2023/04/16 09:23:30;;;;;;;2.35;2.17;;;11.80;99.90;;;;;;5075100;28;20307;-84
2023/04/16 09:25:59;;;;;;;2.63;2.42;;;11.70;99.90;;;;;;5075259;28;20204;-84
2023/04/16 09:28:44;;;;;;;2.58;2.15;;;11.70;99.90;;;;;;5073020;28;20208;-85
2023/04/16 09:31:17;;;;;;;2.15;2.05;;;11.70;99.90;;;;;;5074509;28;20251;-84
2023/04/16 09:34:02;;;;;;;2.47;2.28;;;11.70;99.90;;;;;;5075233;28;20193;-85
2023/04/16 09:36:32;;;;;;;2.35;2.15;;;11.70;99.90;;;;;;5073814;28;20243;-86
2023/04/16 09:39:01;;;;;;;2.35;2.25;;;11.50;99.90;;;;;;5075041;28;20197;-86
2023/04/16 09:41:31;;;;;;;1.90;1.80;;;11.30;99.90;;;;;;5075450;28;20229;-85
2023/04/16 09:44:04;;;;;;;1.90;1.80;;;11.30;99.90;;;;;;5074938;28;20292;-83
2023/04/16 09:46:35;;;;;;;3.22;2.92;;;11.30;99.90;;;;;;5073294;28;20205;-84
2023/04/16 09:49:09;;;;;;;3.92;2.40;;;11.30;99.90;;;;;;5064636;28;20228;-83
2023/04/16 09:52:03;;;;;;;2.47;2.38;;;11.30;99.90;;;;;;5060963;28;20248;-83
2023/04/16 09:54:33;;;;;;;2.58;2.38;;;11.20;99.90;;;;;;5075202;28;20295;-83
2023/04/16 09:57:05;;;;;;;3.47;3.13;;;11.10;99.90;;;;;;5071681;28;20201;-83
2023/04/16 09:59:35;;;;;;;3.50;3.20;;;11.10;99.90;;;;;;5055094;28;20205;-87
2023/04/16 10:02:04;;;;;;;1.77;1.67;;;11.10;99.90;;;;;;5061834;28;20221;-87
2023/04/16 10:04:46;;;;;;;2.20;2.10;;;11.10;99.90;;;;;;5059109;28;20201;-90
2023/04/16 10:07:17;;;;;;;2.60;2.22;;;11.10;99.90;;;;;;5063517;28;20260;-86
2023/04/16 10:09:47;;;;;;;2.38;2.25;;;11.10;99.90;;;;;;5074995;28;20292;-88
2023/04/16 10:12:16;;;;;;;2.42;2.22;;;11.30;99.90;;;;;;5068850;28;20224;-82
2023/04/16 10:14:44;;;;;;;2.13;2.03;;;11.30;99.90;;;;;;5055055;28;20206;-84
2023/04/16 10:17:16;;;;;;;2.83;2.63;;;11.30;99.90;;;;;;5054667;28;20243;-84
2023/04/16 10:19:45;;;;;;;4.13;2.90;;;11.40;99.90;;;;;;5054857;28;20197;-84
2023/04/16 10:22:14;;;;;;;2.25;2.10;;;11.60;99.90;;;;;;5054845;28;20232;-84
2023/04/16 10:24:44;;;;;;;3.45;3.03;;;11.70;99.90;;;;;;5057153;28;20245;-84
2023/04/16 10:27:13;;;;;;;2.33;2.17;;;11.90;99.90;;;;;;5074435;28;20220;-84
2023/04/16 10:29:41;;;;;;;1.98;1.88;;;12.00;99.90;;;;;;5074739;28;20205;-84
2023/04/16 10:32:10;;;;;;;2.50;2.35;;;12.20;99.90;;;;;;5073697;28;20228;-83
2023/04/16 10:34:39;;;;;;;2.58;2.38;;;12.30;99.90;;;;;;5054299;28;20219;-87
2023/04/16 10:37:08;;;;;;;2.47;2.28;;;12.30;99.90;;;;;;5054127;28;20216;-89
2023/04/16 10:39:37;;;;;;;3.00;2.70;;;12.50;99.90;;;;;;5054244;28;20248;-89
2023/04/16 10:42:11;;;;;;;2.08;1.98;;;12.60;99.90;;;;;;5058639;28;20205;-84
2023/04/16 10:44:40;;;;;;;1.90;1.80;;;12.70;99.90;;;;;;5058128;28;20210;-84
2023/04/16 10:47:12;;;;;;;1.92;1.83;;;12.90;99.90;;;;;;5060756;28;20220;-84
2023/04/16 10:49:42;;;;;;;2.00;1.80;;;13.10;99.90;;;;;;5072880;28;20219;-84
2023/04/16 10:52:12;;;;;;;2.28;2.08;;;13.30;99.90;;;;;;5073070;28;20229;-84
2023/04/16 10:54:41;;;;;;;1.80;1.70;;;13.30;99.90;;;;;;5073117;28;20215;-84
2023/04/16 10:57:16;;;;;;;2.40;2.20;;;13.20;99.90;;;;;;5066472;28;20205;-84
2023/04/16 10:59:45;;;;;;;2.40;2.10;;;13.10;99.90;;;;;;5052990;28;20243;-84
2023/04/16 11:02:15;;;;;;;2.60;2.40;;;13.10;99.90;;;;;;5053133;28;20251;-84
2023/04/16 11:04:45;;;;;;;2.50;2.30;;;13.10;99.90;;;;;;5052693;28;20228;-83
2023/04/16 11:07:17;;;;;;;1.95;1.85;;;12.90;99.90;;;;;;5056564;28;20193;-84
2023/04/16 11:09:51;;;;;;;2.58;2.38;;;12.80;99.90;;;;;;5053554;28;20210;-84
2023/04/16 11:12:23;;;;;;;3.03;2.33;;;12.80;99.90;;;;;;5061140;28;20220;-85
2023/04/16 11:14:53;;;;;;;1.85;1.75;;;12.90;99.90;;;;;;5066010;28;20194;-80
2023/04/16 11:17:22;;;;;;;1.70;1.60;;;13.10;99.90;;;;;;5066310;28;20293;-82
2023/04/16 11:19:51;;;;;;;1.75;1.63;;;13.40;99.90;;;;;;5072189;28;20201;-83
2023/04/16 11:22:21;;;;;;;1.60;1.50;;;13.90;99.90;;;;;;5072770;28;20275;-83
2023/04/16 11:24:55;;;;;;;1.52;1.42;;;14.70;99.90;;;;;;5067046;28;20371;-83
2023/04/16 11:27:27;;;;;;;2.08;1.80;;;;;;;;;;5068359;28;20193;-83
2023/04/16 11:30:00;;;;;;;1.67;1.58;;;15.70;99.90;;;;;;5059756;28;20197;-83
2023/04/16 11:32:33;;;;;;;1.48;1.38;;;17.00;99.90;;;;;;5067025;28;20221;-86
2023/04/16 11:35:04;;;;;;;1.50;1.40;;;17.30;99.90;;;;;;5072377;28;20263;-86
2023/04/16 11:37:33;;;;;;;1.63;1.52;;;17.70;99.90;;;;;;5070969;28;20205;-90
2023/04/16 11:40:05;;;;;;;1.83;1.70;;;18.10;99.90;;;;;;5070817;28;20276;-90
2023/04/16 11:42:36;;;;;;;2.20;2.00;;;17.80;98.70;;;;;;5068981;28;20291;-90
2023/04/16 11:45:05;;;;;;;2.33;2.20;;;17.40;99.60;;;;;;5069639;28;20219;-90
2023/04/16 11:47:43;;;;;;;2.60;2.40;;;17.10;99.90;;;;;;5071506;28;20212;-89
2023/04/16 11:50:21;;;;;;;2.47;2.28;;;16.60;99.80;;;;;;5070804;28;20197;-84
2023/04/16 11:52:50;;;;;;;2.30;2.20;;;15.90;99.90;;;;;;5071377;28;20237;-85
2023/04/16 11:55:18;;;;;;;2.10;2.00;;;15.40;99.90;;;;;;5071726;28;20201;-86
2023/04/16 11:57:49;;;;;;;5.22;2.00;;;15.00;99.90;;;;;;5070934;28;20201;-86
2023/04/16 12:00:20;;;;;;;2.10;1.95;;;14.60;99.90;;;;;;5071722;28;20197;-86
2023/04/16 12:02:53;;;;;;;2.20;2.10;;;14.50;99.90;;;;;;5071107;28;20224;-86
2023/04/16 12:05:31;;;;;;;2.30;2.10;;;14.40;99.90;;;;;;5070377;28;20215;-86
2023/04/16 12:08:01;;;;;;;2.20;2.05;;;14.40;99.90;;;;;;5071217;28;20287;-81
2023/04/16 12:10:33;;;;;;;1.80;1.70;;;14.50;99.90;;;;;;5071480;28;20201;-81
2023/04/16 12:13:14;;;;;;;1.70;1.60;;;14.60;99.90;;;;;;5071703;28;20225;-81
2023/04/16 12:15:46;;;;;;;2.50;2.10;;;14.70;99.90;;;;;;5071303;28;20205;-81
2023/04/16 12:18:15;;;;;;;1.40;1.40;;;14.90;99.90;;;;;;5071165;28;20213;-82
2023/04/16 12:20:45;;;;;;;2.20;2.10;;;14.80;99.90;;;;;;5071640;28;20200;-81
2023/04/16 12:23:23;;;;;;;1.60;1.50;;;14.80;99.90;;;;;;5071171;28;20232;-81
2023/04/16 12:25:54;;;;;;;1.60;1.50;;;14.80;99.90;;;;;;5071763;28;20215;-81
2023/04/16 12:28:31;;;;;;;1.63;1.52;;;14.80;99.90;;;;;;5071308;28;20232;-81
2023/04/16 12:31:00;;;;;;;1.30;1.30;;;14.70;99.90;;;;;;5072136;28;20219;-81
2023/04/16 12:33:29;;;;;;;1.85;1.58;;;14.60;99.90;;;;;;5071464;28;20232;-81
2023/04/16 12:35:57;;;;;;;1.58;1.48;;;14.50;99.90;;;;;;5071790;28;20213;-81
2023/04/16 12:38:26;;;;;;;1.80;1.70;;;14.60;99.90;;;;;;5071204;28;20213;-81
2023/04/16 12:40:56;;;;;;;1.50;1.40;;;14.60;99.90;;;;;;5071899;28;20270;-81
2023/04/16 12:43:25;;;;;;;1.23;1.23;;;14.70;99.90;;;;;;5071694;28;20279;-81
2023/04/16 12:45:55;;;;;;;1.35;1.25;;;14.80;99.90;;;;;;5072056;28;20208;-82
2023/04/16 12:48:23;;;;;;;2.05;1.38;;;14.90;99.90;;;;;;5071273;28;20297;-82
2023/04/16 12:50:54;;;;;;;1.60;1.50;;;15.20;99.90;;;;;;5071625;28;20211;-82
2023/04/16 12:53:22;;;;;;;1.35;1.27;;;15.60;99.90;;;;;;5071512;28;20221;-81
2023/04/16 12:55:52;;;;;;;1.42;1.33;;;15.70;99.90;;;;;;5071645;28;20205;-81
2023/04/16 12:58:20;;;;;;;1.33;1.27;;;15.80;99.90;;;;;;5071461;28;20239;-86
2023/04/16 13:00:49;;;;;;;2.85;1.88;;;15.80;99.90;;;;;;5071492;28;20213;-86
2023/04/16 13:03:19;;;;;;;1.17;1.17;;;15.60;99.90;;;;;;5070752;28;20229;-86
2023/04/16 13:05:48;;;;;;;1.35;1.30;;;15.50;99.90;;;;;;5072723;28;20212;-86